Time;durP1;ratioP1;P1;durP2;ratioP2;P2;SDS_P1;SDS_P2;PMS_P1;PMS_P2;Temp;Humidity;BMP_temperature;BMP_pressure;BME280_temperature;BME280_humidity;BME280_pressure;Samples;Min_cycle;Max_cycle;Signal;HPM_P1;HPM_P2
2022/11/28 00:01:12;;;;;;;8.43;6.83;;;;;;;5.76;67.55;95334.09;5032999;28;20182;-82
2022/11/28 00:03:37;;;;;;;8.93;5.93;;;;;;;5.77;67.48;95335.72;5032557;28;20773;-82
2022/11/28 00:06:04;;;;;;;8.53;5.83;;;;;;;5.78;67.21;95339.94;5052941;28;20182;-83
2022/11/28 00:08:30;;;;;;;9.63;6.40;;;;;;;5.76;67.59;95341.81;5031808;28;20715;-82
2022/11/28 00:10:55;;;;;;;9.97;7.73;;;;;;;5.84;67.36;95346.38;5042150;28;20271;-81
2022/11/28 00:13:20;;;;;;;11.80;6.83;;;;;;;5.82;67.80;95335.34;5022161;28;20713;-82
2022/11/28 00:16:00;;;;;;;7.87;5.53;;;;;;;5.74;67.62;95333.38;5043851;28;20252;-82
2022/11/28 00:18:26;;;;;;;8.87;6.23;;;;;;;5.79;67.61;95333.03;5023900;28;20191;-81
2022/11/28 00:20:52;;;;;;;8.77;5.73;;;;;;;5.75;67.50;95327.31;5022871;28;20293;-81
2022/11/28 00:23:17;;;;;;;7.60;5.70;;;;;;;5.75;66.96;95327.31;5021884;28;20252;-82
2022/11/28 00:25:42;;;;;;;7.13;5.90;;;;;;;5.83;66.73;95324.09;5041396;28;20213;-81
2022/11/28 00:28:07;;;;;;;7.40;5.73;;;;;;;5.76;66.66;95328.94;5031719;28;20193;-82
2022/11/28 00:30:36;;;;;;;5.57;4.90;;;;;;;5.73;67.21;95331.75;5034534;28;20189;-82
2022/11/28 00:33:02;;;;;;;7.67;5.17;;;;;;;5.65;67.48;95332.38;5027885;28;20206;-83
2022/11/28 00:35:27;;;;;;;6.47;5.07;;;;;;;5.59;68.12;95319.16;5028391;28;20186;-82
2022/11/28 00:37:53;;;;;;;8.63;5.10;;;;;;;5.48;68.70;95326.91;5033647;28;20194;-82
2022/11/28 00:40:18;;;;;;;5.30;4.50;;;;;;;5.52;68.61;95320.59;5044824;28;20195;-81
2022/11/28 00:42:43;;;;;;;5.73;4.40;;;;;;;5.50;69.26;95314.75;5023998;28;20267;-81
2022/11/28 00:45:09;;;;;;;6.70;5.27;;;;;;;5.50;69.44;95317.31;5041828;28;20249;-82
2022/11/28 00:47:34;;;;;;;6.07;4.33;;;;;;;5.52;69.19;95315.44;5053309;28;20708;-80
2022/11/28 00:49:59;;;;;;;5.33;4.60;;;;;;;5.55;69.36;95305.69;5043363;28;20272;-81
2022/11/28 00:52:24;;;;;;;6.53;4.43;;;;;;;5.60;68.78;95301.00;5025658;28;20320;-82
2022/11/28 00:54:50;;;;;;;8.63;5.37;;;;;;;5.52;69.33;95303.38;5027171;28;20653;-82
2022/11/28 00:57:15;;;;;;;8.20;4.20;;;;;;;5.59;69.59;95294.22;5030278;28;20198;-82
2022/11/28 00:59:40;;;;;;;6.37;4.40;;;;;;;5.58;69.41;95294.34;5029321;28;20193;-81
2022/11/28 01:02:06;;;;;;;9.27;4.67;;;;;;;5.60;69.70;95292.47;5033445;28;20224;-82
2022/11/28 01:04:31;;;;;;;7.50;5.23;;;;;;;5.50;69.64;95291.56;5053562;28;20218;-82
2022/11/28 01:06:56;;;;;;;7.07;5.40;;;;;;;5.52;69.98;95284.53;5031457;28;20202;-82
2022/11/28 01:09:22;;;;;;;7.87;5.00;;;;;;;5.56;69.55;95285.91;5026054;28;20225;-82
2022/11/28 01:11:49;;;;;;;7.23;5.10;;;;;;;5.59;69.44;95283.09;5019556;28;20199;-81
2022/11/28 01:14:15;;;;;;;7.27;5.03;;;;;;;5.53;69.41;95281.00;5037218;28;20206;-82
2022/11/28 01:16:40;;;;;;;6.27;5.27;;;;;;;5.53;69.51;95283.59;5043762;28;20635;-81
2022/11/28 01:19:06;;;;;;;7.13;5.20;;;;;;;5.57;69.39;95283.22;5039503;28;20201;-81
2022/11/28 01:21:31;;;;;;;7.03;5.23;;;;;;;5.42;69.94;95291.38;5019251;28;20221;-82
2022/11/28 01:23:56;;;;;;;8.03;5.20;;;;;;;5.35;70.06;95299.56;5042844;28;20218;-82
2022/11/28 01:26:26;;;;;;;8.00;5.07;;;;;;;5.23;70.93;95292.00;5029501;28;20289;-82
2022/11/28 01:28:51;;;;;;;7.20;5.47;;;;;;;5.19;71.00;95295.75;5041750;28;20572;-82
2022/11/28 01:31:19;;;;;;;6.20;4.70;;;;;;;5.30;70.79;95293.97;5021730;28;20205;-82
2022/11/28 01:33:44;;;;;;;5.80;4.67;;;;;;;5.38;70.56;95291.59;5044176;28;20201;-82
2022/11/28 01:36:10;;;;;;;7.37;5.00;;;;;;;5.48;70.01;95281.41;5033059;28;20193;-82
2022/11/28 01:38:36;;;;;;;6.30;4.30;;;;;;;5.52;69.54;95279.38;5041501;28;20799;-81
2022/11/28 01:41:01;;;;;;;6.53;4.50;;;;;;;5.44;69.70;95280.00;5040885;28;20280;-82
2022/11/28 01:43:26;;;;;;;4.90;4.10;;;;;;;5.41;70.05;95272.53;5029058;28;20264;-81
2022/11/28 01:45:52;;;;;;;5.40;4.10;;;;;;;5.48;69.68;95283.97;5041655;28;20198;-81
2022/11/28 01:48:24;;;;;;;6.57;4.63;;;;;;;5.44;70.13;95277.41;5038345;28;20616;-81
2022/11/28 01:50:53;;;;;;;5.67;4.17;;;;;;;5.42;69.93;95263.84;5027836;28;20186;-82
2022/11/28 01:53:19;;;;;;;5.13;4.07;;;;;;;5.42;69.99;95258.69;5037891;28;20295;-81
2022/11/28 01:55:53;;;;;;;6.03;4.50;;;;;;;5.49;69.78;95253.88;5024161;28;20563;-82
2022/11/28 01:58:18;;;;;;;5.93;4.10;;;;;;;5.51;69.71;95236.53;5043093;28;20193;-81
2022/11/28 02:00:45;;;;;;;4.57;3.90;;;;;;;5.55;69.69;95237.91;5025124;28;20182;-81
2022/11/28 02:03:17;;;;;;;5.93;4.27;;;;;;;5.54;69.96;95249.16;5019106;28;20238;-81
2022/11/28 02:05:43;;;;;;;5.10;4.30;;;;;;;5.35;71.40;95242.09;5046863;28;20198;-81
2022/11/28 02:08:08;;;;;;;4.40;3.70;;;;;;;5.32;71.28;95235.44;5029775;28;20196;-81
2022/11/28 02:11:00;;;;;;;5.20;3.90;;;;;;;5.38;70.77;95252.16;5038978;28;20186;-82
2022/11/28 02:13:43;;;;;;;4.27;3.33;;;;;;;5.33;69.20;95239.66;5023867;28;20579;-81
2022/11/28 02:16:17;;;;;;;3.90;3.03;;;;;;;5.59;68.74;95245.28;5045892;28;20220;-81
2022/11/28 02:19:06;;;;;;;4.40;3.53;;;;;;;5.69;67.49;95235.03;5022581;28;20197;-81
2022/11/28 02:21:37;;;;;;;3.73;3.30;;;;;;;5.68;67.61;95239.38;5019082;28;20209;-81
2022/11/28 02:24:36;;;;;;;6.13;3.90;;;;;;;5.71;67.74;95243.47;5025269;28;20210;-82
2022/11/28 02:27:15;;;;;;;5.30;3.60;;;;;;;5.67;67.90;95231.78;5047421;28;20262;-81
2022/11/28 02:29:58;;;;;;;4.20;3.50;;;;;;;5.60;68.70;95222.91;5036107;28;20193;-81
2022/11/28 02:32:43;;;;;;;5.70;4.37;;;;;;;5.60;69.21;95226.31;5048814;28;20193;-82
2022/11/28 02:35:15;;;;;;;4.77;3.67;;;;;;;5.56;69.92;95227.47;5043892;28;20515;-81
2022/11/28 02:38:01;;;;;;;4.83;4.07;;;;;;;5.55;70.10;95210.41;5017946;28;20245;-81
2022/11/28 02:40:35;;;;;;;4.23;3.83;;;;;;;5.53;69.98;95214.03;5023704;28;20560;-82
2022/11/28 02:43:21;;;;;;;6.47;4.50;;;;;;;5.52;70.52;95217.56;5025372;28;20290;-80
2022/11/28 02:45:57;;;;;;;4.37;3.50;;;;;;;5.31;70.75;95213.22;5017626;28;20198;-82
2022/11/28 02:48:36;;;;;;;3.93;3.53;;;;;;;5.53;69.70;95211.47;5032011;28;20197;-82
2022/11/28 02:51:08;;;;;;;5.03;3.43;;;;;;;5.58;69.72;95214.50;5026501;28;20742;-82
2022/11/28 02:53:34;;;;;;;4.40;3.73;;;;;;;5.48;70.62;95205.88;5034674;28;20677;-82
2022/11/28 02:56:00;;;;;;;5.43;3.50;;;;;;;5.38;70.20;95206.63;5020373;28;20202;-82
2022/11/28 02:58:25;;;;;;;4.07;3.40;;;;;;;5.45;70.27;95206.13;5038927;28;20186;-81
2022/11/28 03:00:51;;;;;;;5.80;3.90;;;;;;;5.46;70.23;95211.16;5030107;28;20206;-82
2022/11/28 03:03:35;;;;;;;6.40;4.23;;;;;;;5.29;71.37;95199.63;5047325;28;20216;-82
2022/11/28 03:06:34;;;;;;;4.43;3.70;;;;;;;5.46;71.04;95202.59;5046839;28;20362;-82
2022/11/28 03:09:25;;;;;;;4.20;3.50;;;;;;;5.40;71.33;95209.91;5023118;28;20193;-82
2022/11/28 03:12:24;;;;;;;4.33;3.27;;;;;;;5.36;71.11;95199.97;5036749;28;20205;-81
2022/11/28 03:14:53;;;;;;;5.03;3.83;;;;;;;5.14;72.54;95193.16;5037650;28;20181;-82
2022/11/28 03:17:48;;;;;;;3.83;3.53;;;;;;;5.33;71.62;95184.78;5043355;28;20184;-82
2022/11/28 03:20:23;;;;;;;5.57;3.83;;;;;;;5.37;71.67;95193.88;5049844;28;20195;-82
2022/11/28 03:23:12;;;;;;;3.40;3.10;;;;;;;5.32;72.12;95185.72;5046361;28;20213;-81
2022/11/28 03:25:45;;;;;;;5.30;3.30;;;;;;;5.20;72.83;95184.94;5024547;28;20182;-82
2022/11/28 03:28:20;;;;;;;6.00;3.30;;;;;;;5.13;72.41;95191.53;4998592;28;20294;-81
2022/11/28 03:30:50;;;;;;;4.80;3.33;;;;;;;5.13;72.73;95188.97;5034489;28;20280;-81
2022/11/28 03:33:16;;;;;;;4.00;3.57;;;;;;;5.10;72.91;95192.56;5022438;28;20211;-81
2022/11/28 03:35:48;;;;;;;4.10;3.50;;;;;;;5.01;73.62;95184.78;5035036;28;20187;-81
2022/11/28 03:38:21;;;;;;;4.00;3.40;;;;;;;5.11;72.34;95190.81;5046478;28;20240;-82
2022/11/28 03:40:50;;;;;;;5.17;3.60;;;;;;;5.02;73.72;95188.97;5031631;28;20278;-82
2022/11/28 03:43:19;;;;;;;4.17;2.93;;;;;;;4.95;74.23;95183.53;5010630;28;20217;-82
2022/11/28 03:45:47;;;;;;;4.60;3.30;;;;;;;4.96;74.43;95185.16;5035402;28;20531;-81
2022/11/28 03:48:18;;;;;;;4.70;4.20;;;;;;;4.95;74.63;95188.69;5022720;28;20578;-82
2022/11/28 03:51:01;;;;;;;6.17;4.70;;;;;;;4.96;75.16;95190.31;5045880;28;20189;-83
2022/11/28 03:53:30;;;;;;;6.00;4.50;;;;;;;4.86;76.07;95178.28;5024835;28;20209;-82
2022/11/28 03:56:01;;;;;;;10.00;7.00;;;;;;;4.97;75.40;95173.09;5035171;28;20193;-83
2022/11/28 03:58:31;;;;;;;9.30;7.27;;;;;;;4.87;76.45;95177.34;5023872;28;20238;-82
2022/11/28 04:01:18;;;;;;;8.60;6.30;;;;;;;4.89;76.59;95180.63;5046556;28;20213;-83
2022/11/28 04:03:55;;;;;;;6.23;4.33;;;;;;;4.80;77.16;95174.44;5043444;28;20222;-83
2022/11/28 04:06:28;;;;;;;5.70;4.40;;;;;;;4.86;76.35;95165.41;5044822;28;20268;-82
2022/11/28 04:09:01;;;;;;;6.03;4.27;;;;;;;4.80;77.24;95159.81;5043717;28;20182;-82
2022/11/28 04:11:35;;;;;;;5.53;3.57;;;;;;;4.81;77.26;95171.75;5033277;28;20190;-82
2022/11/28 04:14:11;;;;;;;4.37;3.23;;;;;;;4.72;76.37;95174.22;5025329;28;20203;-82
2022/11/28 04:16:45;;;;;;;5.30;2.90;;;;;;;4.75;76.07;95163.69;5030530;28;20220;-82
2022/11/28 04:19:29;;;;;;;3.63;2.97;;;;;;;4.79;74.93;95168.47;5048115;28;20189;-82
2022/11/28 04:22:08;;;;;;;4.70;3.00;;;;;;;4.82;73.91;95162.28;5060927;28;20313;-80
2022/11/28 04:24:37;;;;;;;6.33;3.17;;;;;;;4.79;74.28;95158.19;5052596;28;20217;-83
2022/11/28 04:27:07;;;;;;;4.77;4.20;;;;;;;4.77;75.36;95167.78;5051404;28;20243;-81
2022/11/28 04:29:47;;;;;;;4.73;3.63;;;;;;;4.69;76.79;95175.31;5059287;28;20196;-82
2022/11/28 04:32:13;;;;;;;4.80;4.03;;;;;;;4.76;76.27;95176.44;5047480;28;20194;-81
2022/11/28 04:34:42;;;;;;;6.73;3.80;;;;;;;4.71;76.77;95185.47;5032174;28;20564;-82
2022/11/28 04:37:08;;;;;;;5.70;4.33;;;;;;;4.59;78.05;95189.78;5025876;28;20202;-82
2022/11/28 04:39:34;;;;;;;7.10;4.90;;;;;;;4.61;77.90;95190.50;5056341;28;20193;-82
2022/11/28 04:42:10;;;;;;;19.73;13.47;;;;;;;4.63;77.62;95192.97;5053667;28;20190;-82
2022/11/28 04:44:48;;;;;;;6.57;5.17;;;;;;;4.59;77.83;95182.06;5014900;28;20215;-82
2022/11/28 04:47:13;;;;;;;8.27;6.20;;;;;;;4.60;77.58;95185.50;5062967;28;20188;-82
2022/11/28 04:49:38;;;;;;;7.87;5.40;;;;;;;4.54;78.42;95184.22;5038587;28;20204;-81
2022/11/28 04:52:18;;;;;;;6.70;4.37;;;;;;;4.44;78.76;95175.59;5034404;28;20295;-83
2022/11/28 04:55:06;;;;;;;5.33;4.40;;;;;;;4.46;78.53;95181.41;5040257;28;20259;-83
2022/11/28 04:57:43;;;;;;;6.40;4.60;;;;;;;4.54;77.95;95191.91;5040370;28;20272;-83
2022/11/28 05:00:12;;;;;;;4.50;3.43;;;;;;;4.57;76.52;95193.44;5055019;28;20194;-83
2022/11/28 05:02:38;;;;;;;4.40;3.97;;;;;;;4.58;75.81;95175.31;5042005;28;20220;-81
2022/11/28 05:05:13;;;;;;;5.03;3.40;;;;;;;4.65;74.76;95183.38;5046155;28;20309;-84
2022/11/28 05:07:38;;;;;;;3.60;3.20;;;;;;;4.71;74.59;95177.75;5042547;28;20672;-82
2022/11/28 05:10:05;;;;;;;3.60;3.30;;;;;;;4.70;74.88;95176.13;5051024;28;20222;-82
2022/11/28 05:12:30;;;;;;;4.93;4.43;;;;;;;4.72;74.01;95176.81;5053270;28;20257;-81
2022/11/28 05:14:56;;;;;;;9.40;5.93;;;;;;;4.69;75.24;95166.78;5053878;28;20174;-81
2022/11/28 05:17:21;;;;;;;11.13;8.57;;;;;;;4.67;75.11;95166.88;5033447;28;20202;-81
2022/11/28 05:19:47;;;;;;;18.70;13.40;;;;;;;4.66;75.39;95170.38;5032869;28;20404;-82
2022/11/28 05:22:12;;;;;;;14.23;11.93;;;;;;;4.66;75.49;95175.53;5029614;28;20194;-82
2022/11/28 05:24:37;;;;;;;12.27;10.40;;;;;;;4.66;75.61;95183.25;5035485;28;20213;-80
2022/11/28 05:27:03;;;;;;;11.10;8.00;;;;;;;4.66;75.44;95185.81;5045830;28;20174;-80
2022/11/28 05:29:28;;;;;;;6.60;5.90;;;;;;;4.57;75.95;95178.81;5055939;28;20170;-80
2022/11/28 05:31:53;;;;;;;5.80;4.50;;;;;;;4.62;75.53;95181.84;5047422;28;20193;-81
2022/11/28 05:34:19;;;;;;;8.23;7.43;;;;;;;4.59;75.57;95184.66;5039179;28;20262;-79
2022/11/28 05:36:44;;;;;;;7.10;6.50;;;;;;;4.64;75.46;95181.72;5032852;28;20214;-80
2022/11/28 05:39:09;;;;;;;7.73;7.03;;;;;;;4.61;75.16;95180.22;5025821;28;20191;-82
2022/11/28 05:41:34;;;;;;;7.50;6.90;;;;;;;4.63;74.85;95185.25;5045920;28;20186;-80
2022/11/28 05:44:00;;;;;;;6.97;6.20;;;;;;;4.59;75.53;95188.97;5036852;28;20586;-80
2022/11/28 05:46:27;;;;;;;3.93;3.13;;;;;;;4.62;75.28;95181.84;5038471;28;20193;-81
2022/11/28 05:48:55;;;;;;;3.00;2.67;;;;;;;4.64;74.88;95187.69;5033980;28;20208;-81
2022/11/28 05:51:21;;;;;;;4.80;2.80;;;;;;;4.64;75.16;95179.97;5035235;28;20189;-80
2022/11/28 05:53:46;;;;;;;3.77;2.40;;;;;;;4.63;74.82;95182.66;5046733;28;20247;-80
2022/11/28 05:56:14;;;;;;;3.20;2.33;;;;;;;4.62;74.46;95179.28;5043486;28;20190;-80
2022/11/28 05:58:39;;;;;;;3.97;2.50;;;;;;;4.63;74.42;95178.34;5028035;28;20186;-80
2022/11/28 06:01:14;;;;;;;2.40;2.10;;;;;;;4.65;73.34;95173.06;5023731;28;20393;-82
2022/11/28 06:03:40;;;;;;;4.20;2.87;;;;;;;4.65;73.20;95171.31;5049929;28;20206;-81
2022/11/28 06:06:10;;;;;;;3.70;2.80;;;;;;;4.67;73.90;95172.00;5028102;28;20289;-80
2022/11/28 06:08:35;;;;;;;2.90;2.67;;;;;;;4.67;73.83;95166.88;5050328;28;20190;-80
2022/11/28 06:11:01;;;;;;;3.13;2.10;;;;;;;4.65;73.92;95167.94;5033939;28;20332;-83
2022/11/28 06:13:26;;;;;;;3.37;2.30;;;;;;;4.75;73.02;95156.78;5027381;28;20204;-79
2022/11/28 06:15:52;;;;;;;2.17;1.83;;;;;;;4.76;72.69;95158.41;5022474;28;20209;-79
2022/11/28 06:18:17;;;;;;;2.37;2.03;;;;;;;4.77;73.04;95165.22;5022117;28;20203;-80
2022/11/28 06:20:42;;;;;;;2.57;2.20;;;;;;;4.85;72.01;95156.88;5037467;28;20209;-79
2022/11/28 06:23:08;;;;;;;3.70;2.07;;;;;;;4.93;71.94;95162.22;5034621;28;20296;-79
2022/11/28 06:25:33;;;;;;;1.60;1.50;;;;;;;4.98;71.98;95161.88;5022089;28;20651;-80
2022/11/28 06:27:58;;;;;;;2.70;1.60;;;;;;;5.03;71.34;95164.88;5042542;28;20233;-79
2022/11/28 06:30:24;;;;;;;3.10;1.60;;;;;;;5.11;70.63;95163.31;5036645;28;20190;-80
2022/11/28 06:32:49;;;;;;;1.90;1.80;;;;;;;5.14;70.47;95162.28;5029448;28;20296;-81
2022/11/28 06:35:14;;;;;;;2.43;1.80;;;;;;;5.15;70.76;95160.53;5022144;28;20181;-79
2022/11/28 06:37:40;;;;;;;3.30;1.87;;;;;;;5.12;70.86;95159.00;5021141;28;20587;-80
2022/11/28 06:40:05;;;;;;;1.90;1.70;;;;;;;5.17;70.63;95166.34;5027840;28;20185;-80
2022/11/28 06:42:31;;;;;;;2.63;1.77;;;;;;;5.14;71.06;95166.59;5024885;28;20182;-79
2022/11/28 06:44:56;;;;;;;4.80;2.17;;;;;;;5.17;71.00;95172.31;5041876;28;20286;-80
2022/11/28 06:47:21;;;;;;;3.20;2.50;;;;;;;5.17;71.53;95177.47;5039211;28;20193;-79
2022/11/28 06:49:47;;;;;;;3.33;2.60;;;;;;;5.22;71.24;95177.94;5029368;28;20236;-79
2022/11/28 06:52:13;;;;;;;3.43;2.17;;;;;;;5.29;71.03;95181.59;5046384;28;20859;-79
2022/11/28 06:54:38;;;;;;;3.30;2.33;;;;;;;5.35;70.80;95180.31;5052294;28;20202;-80
2022/11/28 06:57:03;;;;;;;2.80;1.90;;;;;;;5.33;70.90;95183.00;5030721;28;20246;-80
2022/11/28 06:59:29;;;;;;;2.73;1.70;;;;;;;5.43;70.74;95182.25;5038214;28;20189;-80
2022/11/28 07:01:56;;;;;;;3.13;2.50;;;;;;;5.40;71.12;95184.16;5040195;28;20276;-79
2022/11/28 07:04:21;;;;;;;4.13;2.33;;;;;;;5.53;71.07;95183.13;5019179;28;20275;-81
2022/11/28 07:06:47;;;;;;;3.20;2.60;;;;;;;5.56;71.26;95186.28;5034773;28;20212;-81
2022/11/28 07:09:12;;;;;;;2.93;2.37;;;;;;;5.60;70.74;95184.28;5031970;28;20190;-82
2022/11/28 07:11:40;;;;;;;3.10;2.77;;;;;;;5.60;71.03;95185.09;5034278;28;20241;-82
2022/11/28 07:14:05;;;;;;;4.40;2.50;;;;;;;5.63;71.28;95189.16;5024163;28;20225;-82
2022/11/28 07:16:31;;;;;;;6.13;2.53;;;;;;;5.51;72.06;95203.06;5023016;28;20197;-81
2022/11/28 07:18:57;;;;;;;3.97;2.07;;;;;;;5.62;71.43;95197.84;5022199;28;20201;-81
2022/11/28 07:21:23;;;;;;;12.13;7.80;;;;;;;5.62;71.01;95198.66;5028039;28;20668;-82
2022/11/28 07:23:48;;;;;;;6.47;4.27;;;;;;;5.69;71.22;95204.13;5039657;28;20209;-82
2022/11/28 07:26:16;;;;;;;4.43;3.67;;;;;;;5.67;71.46;95193.94;5041083;28;20190;-81
2022/11/28 07:28:42;;;;;;;4.10;3.50;;;;;;;5.68;71.56;95193.00;5021262;28;20190;-81
2022/11/28 07:31:09;;;;;;;3.40;2.90;;;;;;;5.71;71.55;95204.00;5032813;28;20212;-81
2022/11/28 07:33:36;;;;;;;4.40;3.90;;;;;;;5.63;71.50;95195.13;5029102;28;20601;-80
2022/11/28 07:36:03;;;;;;;3.17;2.83;;;;;;;5.59;72.21;95203.25;5038421;28;20876;-81
2022/11/28 07:38:29;;;;;;;2.80;2.60;;;;;;;5.61;72.36;95191.06;5036722;28;20218;-80
2022/11/28 07:40:54;;;;;;;6.43;3.53;;;;;;;5.57;72.62;95205.16;5015156;28;20698;-81
2022/11/28 07:43:19;;;;;;;13.30;7.57;;;;;;;5.60;72.62;95202.31;5027589;28;20203;-81
2022/11/28 07:45:45;;;;;;;8.83;6.40;;;;;;;5.67;72.15;95195.72;5038430;28;20203;-82
2022/11/28 07:48:10;;;;;;;8.73;5.17;;;;;;;5.66;72.62;95189.75;5025706;28;20787;-82
2022/11/28 07:50:39;;;;;;;8.30;4.70;;;;;;;5.73;72.56;95194.38;5023418;28;20229;-81
2022/11/28 07:53:04;;;;;;;5.70;3.53;;;;;;;5.79;71.99;95194.69;5037940;28;20202;-81
2022/11/28 07:55:29;;;;;;;4.40;3.93;;;;;;;5.81;72.26;95192.78;5034276;28;20269;-81
2022/11/28 07:57:54;;;;;;;5.57;3.73;;;;;;;5.91;71.35;95198.84;5026724;28;20695;-82
2022/11/28 08:00:22;;;;;;;4.27;3.00;;;;;;;6.02;70.86;95197.16;5032330;28;20193;-81
2022/11/28 08:02:47;;;;;;;3.70;3.00;;;;;;;6.10;70.53;95202.50;5028539;28;20222;-82
2022/11/28 08:05:13;;;;;;;17.37;9.73;;;;;;;6.22;69.75;95202.28;5039094;28;20206;-82
2022/11/28 08:07:39;;;;;;;25.63;14.50;;;;;;;6.28;69.53;95207.88;5043551;28;20188;-82
2022/11/28 08:10:05;;;;;;;8.43;6.17;;;;;;;6.31;69.41;95202.44;5025728;28;20663;-82
2022/11/28 08:12:30;;;;;;;9.13;5.63;;;;;;;6.34;69.31;95207.31;5007849;28;20194;-81
2022/11/28 08:14:56;;;;;;;4.70;4.13;;;;;;;6.33;69.49;95206.50;5030067;28;20198;-81
2022/11/28 08:17:21;;;;;;;8.83;7.93;;;;;;;6.41;69.49;95211.84;5018308;28;20185;-82
2022/11/28 08:19:46;;;;;;;10.47;9.37;;;;;;;6.39;69.81;95211.16;5035885;28;20191;-81
2022/11/28 08:22:12;;;;;;;14.03;12.63;;;;;;;6.49;69.68;95214.59;5032857;28;20197;-82
2022/11/28 08:24:37;;;;;;;12.20;10.90;;;;;;;6.48;70.11;95212.97;5035347;28;20240;-81
2022/11/28 08:27:02;;;;;;;9.63;8.63;;;;;;;6.62;69.77;95218.69;5036196;28;20245;-83
2022/11/28 08:29:28;;;;;;;7.37;6.33;;;;;;;6.66;69.78;95220.88;5018060;28;20183;-82
2022/11/28 08:31:53;;;;;;;7.23;5.80;;;;;;;6.69;69.63;95219.81;5028777;28;20186;-81
2022/11/28 08:34:18;;;;;;;6.53;4.80;;;;;;;6.67;69.79;95222.53;5018448;28;20576;-82
2022/11/28 08:36:46;;;;;;;5.57;5.03;;;;;;;6.76;68.95;95215.75;5022195;28;20209;-81
2022/11/28 08:39:11;;;;;;;4.07;3.63;;;;;;;6.85;68.56;95220.13;5028005;28;20228;-81
2022/11/28 08:41:36;;;;;;;4.20;2.83;;;;;;;6.96;68.51;95220.00;5030917;28;20213;-82
2022/11/28 08:44:02;;;;;;;3.83;2.77;;;;;;;6.98;68.37;95212.97;5021950;28;20221;-82
2022/11/28 08:46:27;;;;;;;3.30;2.97;;;;;;;7.06;68.18;95209.69;5013109;28;20191;-82
2022/11/28 08:48:52;;;;;;;3.13;2.90;;;;;;;7.08;68.14;95215.53;5035973;28;20194;-82
2022/11/28 08:51:22;;;;;;;5.93;3.10;;;;;;;7.18;66.89;95221.53;5035794;28;20179;-81
2022/11/28 08:53:48;;;;;;;5.00;3.20;;;;;;;7.30;67.07;95217.84;5041585;28;20203;-82
2022/11/28 08:56:13;;;;;;;3.77;3.30;;;;;;;7.40;66.73;95212.69;5040983;28;20212;-81
2022/11/28 08:58:38;;;;;;;5.43;3.90;;;;;;;7.47;66.89;95210.38;5043818;28;20182;-82
2022/11/28 09:01:04;;;;;;;4.20;2.73;;;;;;;7.50;66.90;95213.50;5043919;28;20190;-81
2022/11/28 09:03:29;;;;;;;5.20;3.30;;;;;;;7.46;67.56;95207.00;5019306;28;20209;-81
2022/11/28 09:05:59;;;;;;;3.23;2.90;;;;;;;7.56;66.72;95204.41;5041214;28;20781;-81
2022/11/28 09:08:24;;;;;;;3.73;2.90;;;;;;;7.55;66.50;95203.59;5013317;28;20243;-82
2022/11/28 09:10:50;;;;;;;3.77;2.33;;;;;;;7.69;66.53;95198.97;5018276;28;20744;-82
2022/11/28 09:13:15;;;;;;;4.23;2.37;;;;;;;7.65;66.96;95214.72;5042317;28;20209;-81
2022/11/28 09:15:42;;;;;;;2.97;2.37;;;;;;;7.65;66.30;95219.88;5029884;28;20201;-83
2022/11/28 09:18:08;;;;;;;3.07;2.33;;;;;;;7.72;66.58;95217.56;5023336;28;20191;-81
2022/11/28 09:20:33;;;;;;;4.57;2.40;;;;;;;7.72;66.91;95224.50;5038499;28;20197;-81
2022/11/28 09:22:59;;;;;;;5.30;3.97;;;;;;;7.79;66.51;95233.34;5020095;28;20268;-82
2022/11/28 09:25:24;;;;;;;3.13;2.77;;;;;;;7.63;66.15;95226.97;5040100;28;20186;-81
2022/11/28 09:27:49;;;;;;;4.60;4.30;;;;;;;7.63;66.08;95228.75;5042417;28;20191;-82
2022/11/28 09:30:15;;;;;;;6.77;6.17;;;;;;;7.72;65.95;95232.28;5043698;28;20216;-81
2022/11/28 09:32:40;;;;;;;4.27;3.87;;;;;;;7.70;65.75;95242.75;5029715;28;20201;-83
2022/11/28 09:35:06;;;;;;;3.97;3.60;;;;;;;7.70;66.11;95239.34;5039145;28;20244;-81
2022/11/28 09:37:31;;;;;;;3.80;3.50;;;;;;;7.90;65.59;95246.94;5023612;28;20245;-83
2022/11/28 09:39:56;;;;;;;4.43;4.03;;;;;;;7.78;65.78;95239.47;5027798;28;20183;-83
2022/11/28 09:42:29;;;;;;;4.03;3.70;;;;;;;7.98;65.31;95237.69;5033211;28;20240;-80
2022/11/28 09:45:04;;;;;;;5.60;5.10;;;;;;;7.98;65.50;95233.31;5052153;28;20277;-81
2022/11/28 09:47:32;;;;;;;9.97;9.27;;;;;;;8.06;65.35;95238.63;5024443;28;20541;-83
2022/11/28 09:50:01;;;;;;;8.87;8.13;;;;;;;8.08;65.46;95239.28;5030258;28;20339;-82
2022/11/28 09:52:38;;;;;;;4.93;3.37;;;;;;;8.18;65.56;95232.31;5023685;28;20218;-82
2022/11/28 09:55:19;;;;;;;8.13;2.60;;;;;;;8.15;65.45;95229.19;5041525;28;20214;-82
2022/11/28 09:57:47;;;;;;;3.97;2.87;;;;;;;8.25;65.61;95235.16;5028728;28;20301;-82
2022/11/28 10:00:16;;;;;;;3.40;2.60;;;;;;;8.32;65.46;95231.06;5027825;28;20183;-82
2022/11/28 10:03:09;;;;;;;2.43;2.23;;;;;;;8.43;65.35;95232.69;5030227;28;20217;-82
2022/11/28 10:05:38;;;;;;;4.30;2.37;;;;;;;8.47;65.54;95228.84;5028475;28;20205;-82
2022/11/28 10:08:25;;;;;;;3.47;2.70;;;;;;;8.44;65.33;95236.88;5022641;28;20188;-81
2022/11/28 10:11:23;;;;;;;4.17;2.43;;;;;;;8.57;65.02;95226.19;5044250;28;20741;-82
2022/11/28 10:13:48;;;;;;;3.70;3.10;;;;;;;8.63;65.18;95223.88;5028410;28;20709;-82
2022/11/28 10:16:40;;;;;;;5.37;3.10;;;;;;;8.75;65.09;95225.31;5038716;28;20207;-82
2022/11/28 10:19:10;;;;;;;6.67;3.97;;;;;;;8.77;65.28;95225.16;5034447;28;20194;-82
2022/11/28 10:21:43;;;;;;;6.80;3.57;;;;;;;8.94;65.30;95224.41;5025492;28;20183;-82
2022/11/28 10:24:15;;;;;;;4.37;2.70;;;;;;;8.91;66.39;95221.25;5024610;28;20282;-82
2022/11/28 10:26:44;;;;;;;3.97;2.33;;;;;;;8.91;66.76;95218.69;5018251;28;20183;-82
2022/11/28 10:29:30;;;;;;;5.43;2.50;;;;;;;8.92;67.08;95213.38;5047376;28;20187;-82
2022/11/28 10:32:01;;;;;;;4.47;2.67;;;;;;;8.92;66.78;95220.31;5033528;28;20185;-82
2022/11/28 10:34:33;;;;;;;5.07;3.03;;;;;;;8.94;67.11;95214.03;5048519;28;20270;-81
2022/11/28 10:37:06;;;;;;;5.13;3.17;;;;;;;8.99;67.42;95211.00;5020975;28;20220;-82
2022/11/28 10:39:31;;;;;;;5.73;3.30;;;;;;;8.96;66.99;95209.53;5041183;28;20255;-82
2022/11/28 10:42:10;;;;;;;4.10;2.73;;;;;;;9.00;67.38;95210.84;5028318;28;20223;-82
2022/11/28 10:44:43;;;;;;;4.77;2.97;;;;;;;9.05;67.76;95203.47;5047441;28;20197;-82
2022/11/28 10:47:19;;;;;;;5.07;2.53;;;;;;;9.09;68.03;95203.97;5043191;28;20198;-83
2022/11/28 10:49:55;;;;;;;3.10;2.10;;;;;;;9.11;68.51;95194.31;5027115;28;20246;-82
2022/11/28 10:52:25;;;;;;;5.10;3.50;;;;;;;9.25;67.81;95205.91;5043816;28;20662;-82
2022/11/28 10:55:01;;;;;;;4.30;2.80;;;;;;;9.16;67.77;95202.44;5040982;28;20186;-82
2022/11/28 10:57:49;;;;;;;4.20;3.00;;;;;;;9.21;67.77;95192.44;5042705;28;20216;-82
2022/11/28 11:00:17;;;;;;;3.97;2.67;;;;;;;9.22;66.99;95199.25;5034846;28;20190;-82
2022/11/28 11:02:51;;;;;;;3.23;2.30;;;;;;;9.30;66.69;95201.13;5029554;28;20218;-82
2022/11/28 11:05:19;;;;;;;3.07;2.03;;;;;;;9.34;66.05;95200.66;5042727;28;20187;-82
2022/11/28 11:08:14;;;;;;;5.77;2.13;;;;;;;9.23;66.42;95197.47;5044558;28;20189;-82
2022/11/28 11:10:51;;;;;;;4.03;2.50;;;;;;;9.22;65.62;95204.44;5022181;28;20195;-81
2022/11/28 11:13:20;;;;;;;3.10;2.67;;;;;;;9.22;65.97;95199.25;5057084;28;20205;-82
2022/11/28 11:15:49;;;;;;;4.30;3.90;;;;;;;9.22;67.36;95188.09;5021252;28;20704;-82
2022/11/28 11:18:29;;;;;;;5.53;4.30;;;;;;;9.24;67.04;95189.56;5020222;28;20209;-82
2022/11/28 11:21:07;;;;;;;6.40;5.90;;;;;;;9.25;67.94;95190.38;5024621;28;20298;-82
2022/11/28 11:23:32;;;;;;;7.17;6.60;;;;;;;9.22;69.27;95185.50;5043780;28;20210;-82
2022/11/28 11:25:57;;;;;;;4.60;3.57;;;;;;;9.24;67.88;95179.19;5017069;28;20182;-82
2022/11/28 11:28:31;;;;;;;3.53;3.23;;;;;;;9.28;67.17;95185.72;5016789;28;20216;-82
2022/11/28 11:31:05;;;;;;;3.53;3.23;;;;;;;9.39;67.32;95178.69;5032490;28;20208;-83
2022/11/28 11:33:35;;;;;;;3.20;2.90;;;;;;;9.38;68.21;95184.84;5017883;28;20681;-82
2022/11/28 11:36:04;;;;;;;3.40;2.70;;;;;;;9.45;69.03;95181.47;5043498;28;20179;-81
2022/11/28 11:38:32;;;;;;;3.43;2.80;;;;;;;9.42;70.54;95179.19;5033907;28;20185;-82
2022/11/28 11:41:17;;;;;;;5.93;3.97;;;;;;;9.41;71.15;95179.34;5027885;28;20408;-81
2022/11/28 11:43:43;;;;;;;8.53;5.30;;;;;;;9.33;73.42;95180.09;5029936;28;20226;-82
2022/11/28 11:46:10;;;;;;;12.50;7.80;;;;;;;9.35;73.51;95176.38;5021478;28;20193;-81
2022/11/28 11:48:41;;;;;;;9.90;6.83;;;;;;;9.46;74.19;95179.72;5030781;28;20201;-82
2022/11/28 11:51:26;;;;;;;12.17;6.83;;;;;;;9.35;75.59;95175.56;5049987;28;20190;-82
2022/11/28 11:54:07;;;;;;;10.23;5.73;;;;;;;9.25;76.80;95170.44;5021518;28;20622;-82